createdAt,value
2022-08-07T00:00:40.068Z,37.87
2022-08-07T00:03:06.396Z,37.75
2022-08-07T00:05:31.799Z,37.82
2022-08-07T00:10:48.249Z,37.87
2022-08-07T00:13:24.110Z,37.83
2022-08-07T00:15:46.312Z,37.84
2022-08-07T00:18:02.634Z,37.74
2022-08-07T00:20:29.854Z,37.84
2022-08-07T00:22:55.398Z,37.94
2022-08-07T00:25:21.780Z,37.96
2022-08-07T00:27:52.136Z,38.06
2022-08-07T00:30:21.768Z,38.03
2022-08-07T00:32:40.957Z,38.06
2022-08-07T00:35:07.683Z,38.04
2022-08-07T00:37:47.731Z,38.20
2022-08-07T00:40:00.497Z,38.21
2022-08-07T00:42:29.180Z,38.22
2022-08-07T00:44:53.207Z,38.24
2022-08-07T00:48:07.867Z,38.25
2022-08-07T00:50:20.234Z,38.21
2022-08-07T00:52:12.430Z,38.22
2022-08-07T00:54:40.713Z,38.26
2022-08-07T00:57:05.215Z,38.29
2022-08-07T00:59:35.326Z,38.28
2022-08-07T01:01:58.070Z,38.22
2022-08-07T01:04:24.941Z,38.24
2022-08-07T01:06:50.858Z,38.25
2022-08-07T01:10:04.658Z,38.27
2022-08-07T01:12:10.210Z,38.19
2022-08-07T01:14:10.070Z,38.27
2022-08-07T01:16:36.468Z,38.17
2022-08-07T01:19:02.845Z,38.17
2022-08-07T01:21:29.234Z,38.16
2022-08-07T01:23:55.639Z,38.17
2022-08-07T01:26:22.014Z,38.27
2022-08-07T01:28:48.602Z,38.28
2022-08-07T01:31:15.444Z,38.35
2022-08-07T01:33:53.600Z,38.29
2022-08-07T01:36:07.609Z,38.30
2022-08-07T01:38:34.898Z,38.32
2022-08-07T01:41:00.355Z,38.34
2022-08-07T01:43:26.780Z,38.31
2022-08-07T01:45:54.575Z,38.33
2022-08-07T01:48:29.868Z,38.23
2022-08-07T01:50:45.939Z,38.26
2022-08-07T01:53:20.967Z,38.28
2022-08-07T01:55:38.732Z,38.20
2022-08-07T01:58:06.547Z,38.19
2022-08-07T02:00:31.535Z,38.20
2022-08-07T02:03:12.519Z,38.16
2022-08-07T02:05:47.824Z,38.10
2022-08-07T02:07:51.257Z,38.13
2022-08-07T02:10:17.099Z,38.09
2022-08-07T02:12:43.590Z,38.11
2022-08-07T02:15:09.952Z,38.08
2022-08-07T02:17:36.362Z,38.06
2022-08-07T02:20:06.670Z,38.06
2022-08-07T02:22:29.161Z,38.06
2022-08-07T02:24:55.607Z,38.06
2022-08-07T02:27:21.974Z,38.05
2022-08-07T02:29:53.906Z,38.09
2022-08-07T02:32:14.800Z,38.10
2022-08-07T02:34:48.776Z,38.19
2022-08-07T02:37:08.512Z,38.23
2022-08-07T02:39:43.435Z,38.27
2022-08-07T02:42:00.329Z,38.35
2022-08-07T02:44:27.616Z,38.38
2022-08-07T02:46:53.109Z,38.42
2022-08-07T02:49:56.356Z,38.33
2022-08-07T02:51:52.073Z,38.41
2022-08-07T02:54:13.221Z,38.43
2022-08-07T02:56:38.896Z,38.43
2022-08-07T02:59:05.799Z,38.41
2022-08-07T03:01:36.008Z,38.46
2022-08-07T03:03:58.242Z,38.38
2022-08-07T03:06:26.279Z,38.38
2022-08-07T03:08:51.060Z,38.39
2022-08-07T03:11:17.441Z,38.41
2022-08-07T03:13:49.690Z,38.42
2022-08-07T03:16:10.252Z,38.38
2022-08-07T03:18:36.651Z,38.50
2022-08-07T03:21:03.041Z,38.47
2022-08-07T03:23:33.726Z,38.48
2022-08-07T03:25:58.307Z,38.41
2022-08-07T03:28:37.353Z,38.36
2022-08-07T03:30:48.753Z,38.45
2022-08-07T03:33:15.152Z,38.45
2022-08-07T03:35:43.876Z,38.46
2022-08-07T03:38:07.913Z,38.49
2022-08-07T03:40:36.162Z,38.51
2022-08-07T03:43:00.786Z,38.45
2022-08-07T03:45:30.623Z,38.48
2022-08-07T03:47:53.483Z,38.48
2022-08-07T03:50:19.875Z,38.43
2022-08-07T03:52:46.269Z,38.57
2022-08-07T03:55:12.652Z,38.46
2022-08-07T03:58:33.527Z,38.47
2022-08-07T04:00:05.419Z,38.50
2022-08-07T04:02:31.791Z,38.57
2022-08-07T04:04:58.238Z,38.61
2022-08-07T04:07:24.624Z,38.48
2022-08-07T04:09:51.039Z,38.51
2022-08-07T04:12:25.414Z,38.57
2022-08-07T04:14:46.208Z,38.55
2022-08-07T04:17:20.287Z,38.57
2022-08-07T04:19:52.440Z,38.53
2022-08-07T04:22:08.688Z,38.45
2022-08-07T04:24:34.116Z,38.48
2022-08-07T04:26:55.831Z,38.46
2022-08-07T04:29:22.212Z,38.57
2022-08-07T04:32:03.462Z,38.54
2022-08-07T04:34:16.717Z,38.58
2022-08-07T04:36:41.359Z,38.57
2022-08-07T04:39:07.889Z,38.57
2022-08-07T04:41:36.791Z,38.54
2022-08-07T04:44:13.231Z,38.57
2022-08-07T04:46:34.326Z,38.64
2022-08-07T04:48:53.501Z,38.63
2022-08-07T04:51:20.030Z,38.65
2022-08-07T04:54:05.225Z,38.64
2022-08-07T04:58:15.072Z,38.63
2022-08-07T04:59:09.171Z,38.65
2022-08-07T05:01:06.091Z,38.61
2022-08-07T05:04:07.037Z,38.61
2022-08-07T05:05:58.835Z,38.51
2022-08-07T05:08:59.960Z,38.50
2022-08-07T05:10:58.282Z,38.52
2022-08-07T05:14:53.515Z,38.57
2022-08-07T05:15:44.561Z,38.55
2022-08-07T05:18:11.008Z,38.55
2022-08-07T05:20:37.297Z,38.55
2022-08-07T05:23:03.686Z,38.56
2022-08-07T05:25:36.750Z,38.53
2022-08-07T05:28:16.120Z,38.55
2022-08-07T05:30:32.650Z,38.51
2022-08-07T05:32:49.321Z,38.54
2022-08-07T05:35:15.709Z,38.54
2022-08-07T05:37:42.464Z,38.47
2022-08-07T05:40:17.612Z,38.48
2022-08-07T05:42:36.988Z,38.42
2022-08-07T05:45:11.859Z,38.48
2022-08-07T05:47:38.344Z,38.48
2022-08-07T05:49:54.088Z,38.46
2022-08-07T05:52:20.675Z,38.43
2022-08-07T05:54:55.872Z,38.40
2022-08-07T05:57:13.287Z,38.40
2022-08-07T05:59:56.211Z,38.35
2022-08-07T06:02:06.142Z,38.31
2022-08-07T06:04:32.520Z,38.35
2022-08-07T06:07:03.812Z,38.35
2022-08-07T06:10:03.184Z,38.40
2022-08-07T06:11:51.692Z,38.41
2022-08-07T06:14:21.423Z,38.50
2022-08-07T06:16:44.512Z,38.51
2022-08-07T06:19:17.834Z,38.52
2022-08-07T06:22:14.889Z,38.54
2022-08-07T06:24:46.079Z,38.53
2022-08-07T06:26:30.191Z,38.64
2022-08-07T06:28:56.581Z,38.61
2022-08-07T06:31:38.316Z,38.65
2022-08-07T06:33:49.346Z,38.65
2022-08-07T06:36:15.776Z,38.58
2022-08-07T06:38:58.556Z,38.70
2022-08-07T06:41:09.834Z,38.66
2022-08-07T06:43:39.209Z,38.67
2022-08-07T06:46:01.372Z,38.75
2022-08-07T06:48:27.794Z,38.68
2022-08-07T06:50:54.267Z,38.72
2022-08-07T06:55:27.816Z,38.67
2022-08-07T06:55:53.647Z,38.77
2022-08-07T06:58:13.509Z,38.75
2022-08-07T07:00:39.901Z,38.73
2022-08-07T07:03:08.777Z,38.73
2022-08-07T07:06:03.580Z,38.61
2022-08-07T07:08:06.990Z,38.63
2022-08-07T07:10:26.508Z,38.65
2022-08-07T07:12:53.522Z,38.63
2022-08-07T07:15:24.161Z,38.54
2022-08-07T07:17:45.388Z,38.55
2022-08-07T07:20:11.151Z,38.61
2022-08-07T07:24:06.670Z,38.61
2022-08-07T07:26:33.045Z,38.65
2022-08-07T07:27:35.648Z,38.65
2022-08-07T07:30:09.044Z,38.68
2022-08-07T07:32:23.130Z,38.69
2022-08-07T07:34:50.466Z,38.73
2022-08-07T07:37:44.249Z,38.73
2022-08-07T07:39:52.462Z,38.75
2022-08-07T07:42:13.967Z,38.80
2022-08-07T07:44:35.230Z,38.76
2022-08-07T07:47:16.046Z,38.80
2022-08-07T07:50:29.758Z,38.82
2022-08-07T07:51:57.986Z,38.86
2022-08-07T07:54:20.777Z,38.82
2022-08-07T07:56:47.202Z,38.81
2022-08-07T07:59:14.600Z,38.87
2022-08-07T08:02:02.468Z,38.86
2022-08-07T08:04:11.663Z,38.84
2022-08-07T08:06:32.788Z,38.87
2022-08-07T08:09:00.387Z,38.86
2022-08-07T08:11:59.427Z,38.85
2022-08-07T08:13:53.828Z,38.83
2022-08-07T08:16:18.398Z,38.87
2022-08-07T08:18:45.120Z,38.87
2022-08-07T08:21:11.168Z,38.85
2022-08-07T08:23:37.585Z,38.85
2022-08-07T08:26:06.858Z,38.88
2022-08-07T08:28:38.294Z,38.85
2022-08-07T08:30:57.874Z,38.87
2022-08-07T08:33:24.260Z,38.88
2022-08-07T08:35:51.066Z,38.90
2022-08-07T08:38:17.072Z,38.86
2022-08-07T08:40:43.768Z,38.90
2022-08-07T08:43:09.882Z,38.92
2022-08-07T08:45:41.949Z,38.91
2022-08-07T08:48:02.745Z,38.91
2022-08-07T08:50:39.244Z,38.91
2022-08-07T08:52:55.626Z,38.90
2022-08-07T08:55:55.143Z,38.86
2022-08-07T08:57:48.389Z,38.86
2022-08-07T09:00:14.783Z,38.88
2022-08-07T09:02:41.954Z,38.86
2022-08-07T09:05:07.580Z,38.82
2022-08-07T09:07:34.182Z,39.06
2022-08-07T09:10:03.164Z,39.29
2022-08-07T09:12:30.961Z,39.31
2022-08-07T09:14:58.919Z,39.48
2022-08-07T09:17:19.633Z,39.55
2022-08-07T09:19:52.704Z,39.57
2022-08-07T09:24:28.321Z,39.59
2022-08-07T09:25:00.613Z,39.67
2022-08-07T09:27:11.883Z,39.60
2022-08-07T09:30:05.592Z,39.65
2022-08-07T09:31:58.053Z,39.68
2022-08-07T09:34:24.413Z,39.76
2022-08-07T09:36:50.796Z,39.74
2022-08-07T09:39:55.523Z,39.71
2022-08-07T09:42:03.038Z,39.77
2022-08-07T09:44:19.173Z,39.85
2022-08-07T09:47:50.042Z,39.85
2022-08-07T09:50:00.491Z,39.86
2022-08-07T09:52:15.877Z,39.96
2022-08-07T09:53:59.273Z,40.09
2022-08-07T09:56:37.237Z,40.14
2022-08-07T09:58:48.609Z,40.25
2022-08-07T10:01:50.319Z,40.36
2022-08-07T10:04:06.677Z,40.48
2022-08-07T10:06:12.326Z,40.57
2022-08-07T10:08:34.026Z,40.69
2022-08-07T10:11:59.453Z,40.69
2022-08-07T10:13:49.916Z,40.80
2022-08-07T10:15:53.190Z,40.79
2022-08-07T10:18:19.885Z,40.88
2022-08-07T10:20:45.979Z,40.83
2022-08-07T10:23:12.363Z,40.85
2022-08-07T10:25:42.843Z,40.89
2022-08-07T10:28:05.155Z,40.87
2022-08-07T10:30:31.541Z,40.82
2022-08-07T10:32:59.879Z,40.73
2022-08-07T10:35:25.816Z,40.76
2022-08-07T10:38:09.830Z,40.79
2022-08-07T10:40:17.147Z,40.80
2022-08-07T10:42:43.495Z,40.70
2022-08-07T10:45:09.892Z,40.66
2022-08-07T10:47:51.373Z,40.59
2022-08-07T10:50:02.681Z,40.60
2022-08-07T10:52:33.584Z,40.61
2022-08-07T10:55:01.794Z,40.65
2022-08-07T10:57:22.163Z,40.64
2022-08-07T10:59:48.239Z,40.73
2022-08-07T11:02:32.764Z,40.78
2022-08-07T11:04:41.087Z,40.80
2022-08-07T11:07:15.131Z,41.25
2022-08-07T11:10:08.624Z,41.41
2022-08-07T11:12:00.262Z,41.60
2022-08-07T11:14:56.850Z,41.62
2022-08-07T11:16:55.810Z,41.64
2022-08-07T11:19:21.644Z,41.53
2022-08-07T11:21:45.867Z,41.47
2022-08-07T11:24:12.247Z,41.42
2022-08-07T11:26:48.265Z,41.28
2022-08-07T11:29:13.054Z,41.11
2022-08-07T11:31:35.001Z,41.05
2022-08-07T11:34:00.824Z,40.99
2022-08-07T11:36:30.615Z,41.01
2022-08-07T11:38:53.202Z,40.92
2022-08-07T11:41:28.243Z,40.83
2022-08-07T11:44:11.430Z,40.88
2022-08-07T11:46:12.387Z,40.83
2022-08-07T11:48:38.797Z,40.86
2022-08-07T11:51:09.673Z,40.96
2022-08-07T11:53:35.140Z,40.88
2022-08-07T11:56:09.315Z,40.99
2022-08-07T11:58:33.165Z,41.05
2022-08-07T12:01:01.679Z,41.09
2022-08-07T12:03:45.719Z,41.15
2022-08-07T12:05:49.178Z,41.18
2022-08-07T12:08:11.370Z,41.24
2022-08-07T12:10:36.462Z,41.34
2022-08-07T12:13:02.855Z,41.47
2022-08-07T12:15:35.605Z,41.56
2022-08-07T12:17:59.846Z,41.63
2022-08-07T12:20:30.080Z,41.85
2022-08-07T12:22:58.698Z,41.97
2022-08-07T12:26:00.374Z,42.03
2022-08-07T12:28:09.042Z,42.02
2022-08-07T12:30:08.134Z,42.11
2022-08-07T12:32:34.517Z,42.08
2022-08-07T12:35:01.081Z,41.97
2022-08-07T12:37:28.156Z,42.03
2022-08-07T12:39:53.721Z,42.16
2022-08-07T12:42:22.734Z,42.24
2022-08-07T12:44:46.472Z,42.20
2022-08-07T12:47:12.883Z,42.34
2022-08-07T12:49:44.188Z,42.34
2022-08-07T12:52:14.350Z,42.44
2022-08-07T12:54:38.014Z,42.34
2022-08-07T12:56:59.132Z,42.33
2022-08-07T12:59:24.991Z,42.42
2022-08-07T13:01:51.423Z,42.37
2022-08-07T13:04:31.662Z,42.34
2022-08-07T13:06:54.281Z,42.27
2022-08-07T13:10:21.437Z,42.42
2022-08-07T13:12:03.252Z,42.50
2022-08-07T13:14:03.365Z,42.39
2022-08-07T13:16:29.762Z,42.53
2022-08-07T13:18:56.209Z,42.64
2022-08-07T13:21:37.715Z,42.69
2022-08-07T13:24:02.185Z,43.00
2022-08-07T13:26:15.980Z,42.83
2022-08-07T13:28:41.784Z,42.60
2022-08-07T13:31:13.465Z,42.82
2022-08-07T13:34:31.620Z,42.70
2022-08-07T13:36:05.708Z,42.82
2022-08-07T13:38:27.449Z,42.76
2022-08-07T13:40:54.423Z,42.37
2022-08-07T13:43:21.642Z,42.45
2022-08-07T13:46:16.406Z,42.50
2022-08-07T13:48:27.431Z,42.74
2022-08-07T13:50:44.903Z,42.31
2022-08-07T13:53:05.865Z,42.84
2022-08-07T13:55:33.988Z,43.42
2022-08-07T13:58:02.403Z,43.22
2022-08-07T14:00:26.391Z,43.29
2022-08-07T14:02:54.098Z,42.95
2022-08-07T14:05:17.897Z,43.21
2022-08-07T14:07:59.441Z,43.18
2022-08-07T14:10:23.117Z,43.01
2022-08-07T14:12:41.870Z,43.27
2022-08-07T14:15:03.616Z,43.31
2022-08-07T14:18:13.137Z,43.24
2022-08-07T14:20:41.912Z,43.32
2022-08-07T14:22:34.449Z,43.50
2022-08-07T14:24:49.240Z,43.59
2022-08-07T14:28:09.492Z,43.64
2022-08-07T14:30:09.587Z,43.84
2022-08-07T14:32:08.427Z,43.82
2022-08-07T14:34:34.848Z,43.90
2022-08-07T14:37:02.965Z,44.51
2022-08-07T14:40:16.079Z,44.34
2022-08-07T14:42:18.693Z,45.10
2022-08-07T14:44:20.399Z,45.39
2022-08-07T14:46:51.840Z,44.88
2022-08-07T14:49:17.252Z,45.07
2022-08-07T14:52:02.790Z,44.66
2022-08-07T14:54:30.502Z,44.05
2022-08-07T14:56:33.375Z,43.98
2022-08-07T14:58:58.755Z,44.13
2022-08-07T15:01:25.178Z,44.33
2022-08-07T15:03:52.639Z,44.39
2022-08-07T15:06:17.952Z,44.42
2022-08-07T15:08:47.445Z,44.43
2022-08-07T15:11:10.740Z,44.51
2022-08-07T15:13:37.217Z,44.37
2022-08-07T15:16:03.600Z,44.78
2022-08-07T15:18:35.827Z,45.07
2022-08-07T15:20:56.369Z,44.89
2022-08-07T15:23:22.835Z,44.68
2022-08-07T15:25:49.210Z,44.76
2022-08-07T15:28:34.782Z,44.47
2022-08-07T15:31:04.552Z,44.10
2022-08-07T15:33:19.476Z,43.80
2022-08-07T15:35:40.672Z,43.81
2022-08-07T15:38:30.142Z,43.77
2022-08-07T15:40:34.502Z,43.88
2022-08-07T15:42:54.164Z,44.08
2022-08-07T15:45:20.573Z,44.15
2022-08-07T15:48:00.876Z,44.13
2022-08-07T15:51:01.703Z,44.07
2022-08-07T15:52:39.796Z,43.88
2022-08-07T15:55:08.828Z,43.84
2022-08-07T15:57:47.658Z,43.71
2022-08-07T15:59:59.442Z,43.41
2022-08-07T16:02:25.373Z,43.30
2022-08-07T16:04:51.859Z,43.56
2022-08-07T16:08:31.291Z,43.70
2022-08-07T16:09:44.653Z,43.82
2022-08-07T16:12:12.144Z,43.80
2022-08-07T16:14:37.465Z,43.95
2022-08-07T16:17:15.051Z,44.00
2022-08-07T16:19:41.767Z,44.23
2022-08-07T16:22:05.615Z,44.36
2022-08-07T16:24:34.833Z,44.66
2022-08-07T16:26:58.862Z,44.75
2022-08-07T16:30:07.340Z,45.07
2022-08-07T16:31:57.264Z,44.75
2022-08-07T16:34:10.451Z,44.73
2022-08-07T16:36:34.981Z,44.61
2022-08-07T16:39:02.129Z,44.51
2022-08-07T16:41:27.767Z,44.66
2022-08-07T16:44:05.842Z,44.53
2022-08-07T16:47:05.630Z,45.04
2022-08-07T16:48:53.728Z,45.30
2022-08-07T16:52:02.007Z,45.46
2022-08-07T16:54:01.236Z,44.53
2022-08-07T16:56:06.244Z,44.31
2022-08-07T16:58:54.230Z,44.24
2022-08-07T17:00:59.073Z,44.01
2022-08-07T17:03:58.406Z,43.82
2022-08-07T17:06:19.541Z,43.72
2022-08-07T17:08:18.161Z,43.61
2022-08-07T17:10:54.581Z,43.47
2022-08-07T17:13:10.934Z,43.50
2022-08-07T17:15:44.742Z,43.41
2022-08-07T17:18:03.717Z,43.30
2022-08-07T17:20:30.854Z,43.36
2022-08-07T17:22:56.724Z,43.31
2022-08-07T17:25:45.675Z,43.24
2022-08-07T17:27:51.109Z,43.28
2022-08-07T17:30:20.209Z,43.24
2022-08-07T17:32:52.371Z,43.26
2022-08-07T17:35:49.852Z,43.21
2022-08-07T17:38:09.596Z,43.21
2022-08-07T17:40:08.149Z,43.29
2022-08-07T17:42:27.761Z,43.37
2022-08-07T17:44:55.709Z,43.32
2022-08-07T17:47:38.175Z,43.34
2022-08-07T17:49:46.844Z,43.36
2022-08-07T17:52:13.222Z,43.37
2022-08-07T17:54:53.906Z,43.42
2022-08-07T17:57:18.865Z,43.37
2022-08-07T17:59:35.791Z,43.39
2022-08-07T18:01:58.956Z,43.42
2022-08-07T18:04:31.017Z,43.47
2022-08-07T18:07:19.394Z,43.47
2022-08-07T18:09:18.040Z,43.47
2022-08-07T18:12:19.375Z,43.50
2022-08-07T18:14:10.803Z,43.48
2022-08-07T18:16:37.187Z,43.53
2022-08-07T18:21:06.521Z,43.42
2022-08-07T18:21:53.575Z,43.43
2022-08-07T18:23:58.291Z,43.41
2022-08-07T18:26:22.753Z,43.42
2022-08-07T18:28:58.434Z,43.47
2022-08-07T18:31:15.549Z,43.39
2022-08-07T18:33:54.899Z,43.42
2022-08-07T18:36:08.337Z,43.47
2022-08-07T18:38:55.039Z,43.43
2022-08-07T18:41:08.041Z,43.45
2022-08-07T18:43:36.916Z,43.44
2022-08-07T18:46:25.794Z,43.41
2022-08-07T18:50:05.268Z,43.43
2022-08-07T18:50:48.041Z,43.38
2022-08-07T18:53:13.924Z,43.40
2022-08-07T18:55:42.700Z,43.41
2022-08-07T18:58:05.787Z,43.37
2022-08-07T19:00:35.600Z,43.37
2022-08-07T19:02:58.612Z,43.27
2022-08-07T19:05:25.007Z,43.42
2022-08-07T19:07:56.983Z,43.34
2022-08-07T19:10:18.620Z,43.34
2022-08-07T19:12:48.573Z,43.39
2022-08-07T19:16:03.602Z,43.43
2022-08-07T19:17:59.401Z,43.42
2022-08-07T19:20:03.320Z,43.39
2022-08-07T19:22:30.238Z,43.39
2022-08-07T19:24:56.095Z,43.40
2022-08-07T19:28:57.819Z,43.36
2022-08-07T19:30:56.319Z,43.40
2022-08-07T19:32:25.856Z,43.38
2022-08-07T19:34:41.635Z,43.40
2022-08-07T19:37:09.875Z,43.28
2022-08-07T19:39:40.827Z,43.35
2022-08-07T19:42:07.922Z,43.35
2022-08-07T19:44:31.287Z,43.26
2022-08-07T19:46:55.690Z,43.27
2022-08-07T19:49:19.978Z,43.24
2022-08-07T19:51:52.424Z,43.22
2022-08-07T19:54:33.414Z,43.27
2022-08-07T19:58:01.821Z,43.27
2022-08-07T19:59:05.523Z,43.25
2022-08-07T20:01:52.336Z,43.21
2022-08-07T20:03:58.349Z,43.28
2022-08-07T20:06:30.507Z,43.21
2022-08-07T20:08:51.192Z,43.26
2022-08-07T20:11:23.068Z,43.19
2022-08-07T20:13:43.973Z,43.14
2022-08-07T20:16:32.334Z,43.21
2022-08-07T20:18:36.758Z,43.23
2022-08-07T20:21:03.144Z,43.19
2022-08-07T20:23:42.947Z,43.16
2022-08-07T20:25:56.026Z,43.15
2022-08-07T20:28:29.289Z,43.17
2022-08-07T20:30:48.754Z,43.18
2022-08-07T20:33:36.232Z,43.15
2022-08-07T20:35:51.917Z,43.16
2022-08-07T20:38:07.978Z,43.17
2022-08-07T20:40:35.064Z,43.11
2022-08-07T20:43:00.902Z,43.08
2022-08-07T20:45:32.756Z,43.09
2022-08-07T20:47:56.279Z,43.10
2022-08-07T20:50:20.063Z,43.10
2022-08-07T20:52:51.045Z,43.06
2022-08-07T20:55:12.852Z,43.08
2022-08-07T20:57:39.233Z,43.03
2022-08-07T21:00:09.242Z,43.06
2022-08-07T21:02:32.050Z,42.99
2022-08-07T21:04:58.391Z,43.08
2022-08-07T21:07:24.899Z,42.98
2022-08-07T21:09:53.034Z,42.98
2022-08-07T21:12:28.646Z,43.05
2022-08-07T21:14:48.253Z,42.93
2022-08-07T21:18:03.234Z,42.98
2022-08-07T21:19:51.125Z,42.97
2022-08-07T21:22:03.225Z,42.92
2022-08-07T21:24:29.598Z,42.89
2022-08-07T21:26:55.992Z,42.87
2022-08-07T21:29:22.383Z,42.89
2022-08-07T21:32:42.487Z,42.85
2022-08-07T21:34:16.453Z,42.86
2022-08-07T21:36:41.556Z,42.79
2022-08-07T21:39:46.302Z,42.83
2022-08-07T21:41:38.372Z,42.83
2022-08-07T21:44:01.600Z,42.84
2022-08-07T21:46:32.293Z,42.85
2022-08-07T21:48:56.636Z,42.82
2022-08-07T21:51:25.022Z,42.76
2022-08-07T21:53:52.787Z,42.91
2022-08-07T21:56:16.677Z,42.91
2022-08-07T21:58:39.149Z,42.95
2022-08-07T22:01:08.358Z,42.92
2022-08-07T22:03:32.065Z,42.87
2022-08-07T22:05:58.297Z,42.89
2022-08-07T22:08:24.921Z,42.98
2022-08-07T22:10:51.063Z,43.05
2022-08-07T22:13:17.471Z,43.04
2022-08-07T22:16:44.596Z,43.02
2022-08-07T22:18:10.244Z,43.10
2022-08-07T22:20:36.647Z,43.09
2022-08-07T22:23:03.117Z,43.14
2022-08-07T22:25:36.387Z,43.25
2022-08-07T22:28:29.736Z,43.08
2022-08-07T22:30:22.295Z,43.06
2022-08-07T22:32:48.703Z,43.15
2022-08-07T22:35:15.083Z,43.22
2022-08-07T22:38:03.693Z,43.14
2022-08-07T22:40:07.879Z,43.05
2022-08-07T22:42:34.284Z,43.12
2022-08-07T22:45:02.243Z,43.11
2022-08-07T22:47:27.065Z,43.14
2022-08-07T22:49:54.741Z,43.11
2022-08-07T22:52:37.457Z,43.11
2022-08-07T22:54:49.214Z,43.14
2022-08-07T22:57:13.845Z,43.18
2022-08-07T22:59:40.815Z,43.20
2022-08-07T23:02:05.476Z,43.21
2022-08-07T23:04:31.877Z,43.19
2022-08-07T23:06:58.249Z,43.21
2022-08-07T23:10:03.771Z,43.21
2022-08-07T23:11:51.020Z,43.25
2022-08-07T23:14:17.404Z,43.24
2022-08-07T23:16:54.678Z,43.33
2022-08-07T23:19:13.667Z,43.32
2022-08-07T23:21:36.970Z,43.43
2022-08-07T23:24:05.567Z,43.40
2022-08-07T23:26:29.353Z,43.40
2022-08-07T23:28:56.476Z,43.43
2022-08-07T23:32:50.342Z,43.30
2022-08-07T23:34:34.330Z,43.40
2022-08-07T23:36:17.432Z,43.27
2022-08-07T23:38:42.864Z,43.36
2022-08-07T23:41:08.625Z,43.28
2022-08-07T23:43:37.911Z,43.41
2022-08-07T23:46:03.674Z,43.33
2022-08-07T23:48:26.982Z,43.37
2022-08-07T23:50:54.513Z,43.37
2022-08-07T23:53:21.287Z,43.35
2022-08-07T23:55:51.779Z,43.42
2022-08-07T23:58:21.161Z,43.56
